Time;durP1;ratioP1;P1;durP2;ratioP2;P2;SDS_P1;SDS_P2;PMS_P1;PMS_P2;Temp;Humidity;BMP_temperature;BMP_pressure;BME280_temperature;BME280_humidity;BME280_pressure;Samples;Min_cycle;Max_cycle;Signal;HPM_P1;HPM_P2
2023/10/25 00:01:21;;;;;;;2.33;1.23;;;11.70;99.90;;;;;;4970284;28;20225;-22
2023/10/25 00:03:46;;;;;;;2.20;1.10;;;11.40;99.90;;;;;;4975086;28;20028;-22
2023/10/25 00:06:12;;;;;;;1.40;0.90;;;11.70;99.90;;;;;;4942789;28;20038;-23
2023/10/25 00:08:38;;;;;;;3.38;1.00;;;11.70;99.90;;;;;;4960200;28;20062;-22
2023/10/25 00:11:05;;;;;;;2.57;1.20;;;11.70;99.90;;;;;;4963622;28;20022;-22
2023/10/25 00:13:31;;;;;;;2.67;1.00;;;11.80;99.90;;;;;;4963810;28;20031;-22
2023/10/25 00:15:57;;;;;;;2.50;1.08;;;11.80;99.90;;;;;;4970274;28;20460;-22
2023/10/25 00:18:24;;;;;;;2.47;1.10;;;11.90;99.90;;;;;;4973926;28;20251;-22
2023/10/25 00:20:54;;;;;;;2.03;1.10;;;11.90;99.90;;;;;;4976615;28;20517;-22
2023/10/25 00:23:20;;;;;;;1.23;1.03;;;11.90;99.90;;;;;;4960243;28;20544;-22
2023/10/25 00:25:48;;;;;;;1.88;0.90;;;11.90;99.90;;;;;;4963288;28;20042;-22
2023/10/25 00:28:14;;;;;;;2.35;1.00;;;12.00;99.90;;;;;;4944320;28;20692;-22
2023/10/25 00:30:40;;;;;;;1.88;1.20;;;12.00;99.90;;;;;;4973643;28;20022;-22
2023/10/25 00:33:06;;;;;;;3.10;1.00;;;12.00;99.90;;;;;;4970236;28;20117;-22
2023/10/25 00:35:32;;;;;;;2.38;0.90;;;12.10;99.90;;;;;;4964269;28;20026;-22
2023/10/25 00:37:58;;;;;;;2.85;1.10;;;12.10;99.90;;;;;;4948829;28;20085;-23
2023/10/25 00:40:24;;;;;;;1.38;0.90;;;12.10;99.90;;;;;;4957223;28;20255;-22
2023/10/25 00:42:50;;;;;;;3.13;1.30;;;12.20;99.90;;;;;;4967322;28;20034;-22
2023/10/25 00:45:16;;;;;;;2.67;1.00;;;12.10;99.90;;;;;;4961657;28;20171;-21
2023/10/25 00:47:43;;;;;;;2.53;1.00;;;12.20;99.90;;;;;;4976686;28;20031;-21
2023/10/25 00:50:17;;;;;;;1.53;1.10;;;12.20;99.90;;;;;;4968314;28;20030;-21
2023/10/25 00:52:43;;;;;;;2.58;0.90;;;12.30;99.90;;;;;;4940916;28;20062;-21
2023/10/25 00:55:09;;;;;;;2.58;1.27;;;12.30;99.90;;;;;;4958090;28;20216;-21
2023/10/25 00:57:35;;;;;;;1.83;1.10;;;12.30;99.90;;;;;;4962966;28;20487;-21
2023/10/25 01:00:02;;;;;;;1.85;1.00;;;12.30;99.90;;;;;;4958885;28;20046;-22
2023/10/25 01:02:28;;;;;;;3.95;1.20;;;12.40;99.90;;;;;;4972750;28;20018;-21
2023/10/25 01:04:54;;;;;;;2.17;1.00;;;12.40;99.90;;;;;;4951686;28;20527;-22
2023/10/25 01:07:20;;;;;;;2.97;1.00;;;12.40;99.90;;;;;;4943910;28;21066;-21
2023/10/25 01:09:46;;;;;;;2.25;0.90;;;12.40;99.90;;;;;;4987374;28;20125;-21
2023/10/25 01:12:15;;;;;;;2.63;1.10;;;12.40;99.90;;;;;;4952196;28;20303;-21
2023/10/25 01:14:41;;;;;;;2.27;0.90;;;12.40;99.90;;;;;;4963675;28;20041;-21
2023/10/25 01:17:07;;;;;;;2.97;1.05;;;12.40;99.90;;;;;;4965132;28;20030;-21
2023/10/25 01:19:32;;;;;;;2.03;0.90;;;12.40;99.90;;;;;;4974145;28;20062;-21
2023/10/25 01:21:59;;;;;;;2.07;1.10;;;12.40;99.90;;;;;;4950669;28;20321;-22
2023/10/25 01:24:25;;;;;;;2.33;1.20;;;12.40;99.90;;;;;;4950434;28;20030;-21
2023/10/25 01:26:51;;;;;;;2.17;1.05;;;12.30;99.90;;;;;;4959448;28;20072;-22
2023/10/25 01:29:16;;;;;;;2.30;1.00;;;12.30;99.90;;;;;;4963605;28;20209;-21
2023/10/25 01:31:42;;;;;;;2.90;1.17;;;12.30;99.90;;;;;;4960843;28;20110;-22
2023/10/25 01:34:08;;;;;;;2.20;1.20;;;12.30;99.90;;;;;;4969687;28;20045;-22
2023/10/25 01:36:33;;;;;;;4.20;1.10;;;12.30;99.90;;;;;;4969874;28;20034;-21
2023/10/25 01:38:59;;;;;;;3.28;1.30;;;12.30;99.90;;;;;;4948384;28;20030;-22
2023/10/25 01:41:25;;;;;;;2.70;1.07;;;12.20;99.90;;;;;;4970236;28;20027;-21
2023/10/25 01:43:50;;;;;;;2.25;1.02;;;12.30;99.90;;;;;;4950210;28;20877;-22
2023/10/25 01:46:16;;;;;;;2.07;1.10;;;12.00;99.90;;;;;;4960085;28;20270;-21
2023/10/25 01:48:43;;;;;;;3.30;1.17;;;12.20;99.90;;;;;;4967450;28;20052;-22
2023/10/25 01:51:09;;;;;;;1.60;0.95;;;12.30;99.90;;;;;;4969704;28;20215;-21
2023/10/25 01:53:36;;;;;;;2.83;0.97;;;12.30;99.90;;;;;;4971202;28;20023;-22
2023/10/25 01:56:02;;;;;;;2.78;1.00;;;12.30;99.90;;;;;;4943160;28;20034;-23
2023/10/25 01:58:27;;;;;;;1.42;0.93;;;12.30;99.90;;;;;;4940951;28;20428;-22
2023/10/25 02:00:53;;;;;;;1.23;0.90;;;12.30;99.90;;;;;;4948695;28;20401;-22
2023/10/25 02:03:19;;;;;;;1.70;0.98;;;12.30;99.90;;;;;;4985404;28;20023;-22
2023/10/25 02:05:45;;;;;;;2.40;0.90;;;12.30;99.90;;;;;;4970461;28;20916;-22
2023/10/25 02:08:11;;;;;;;1.33;0.80;;;12.30;99.90;;;;;;4988462;28;20247;-21
2023/10/25 02:10:37;;;;;;;1.88;1.00;;;12.30;99.90;;;;;;4952862;28;20106;-22
2023/10/25 02:13:02;;;;;;;1.80;0.80;;;12.30;99.90;;;;;;4977527;28;20239;-21
2023/10/25 02:15:28;;;;;;;1.97;1.00;;;12.30;99.90;;;;;;4956020;28;20550;-21
2023/10/25 02:17:54;;;;;;;2.38;0.80;;;12.30;99.90;;;;;;4959602;28;20019;-21
2023/10/25 02:20:20;;;;;;;1.53;0.70;;;12.30;99.90;;;;;;4972798;28;20030;-22
2023/10/25 02:22:46;;;;;;;1.30;0.80;;;12.30;99.90;;;;;;4971902;28;20034;-22
2023/10/25 02:25:12;;;;;;;1.30;0.82;;;12.30;99.90;;;;;;4950917;28;20906;-21
2023/10/25 02:27:37;;;;;;;1.77;1.00;;;12.20;99.90;;;;;;4988970;28;20603;-22
2023/10/25 02:30:04;;;;;;;1.42;0.95;;;12.30;99.90;;;;;;4957940;28;20284;-21
2023/10/25 02:32:30;;;;;;;2.53;1.00;;;11.50;99.90;;;;;;4969051;28;20038;-21
2023/10/25 02:34:56;;;;;;;1.70;0.80;;;12.20;99.90;;;;;;4964269;28;20027;-21
2023/10/25 02:37:22;;;;;;;2.38;1.02;;;12.20;99.90;;;;;;4986850;28;20018;-22
2023/10/25 02:39:48;;;;;;;1.70;1.00;;;12.20;99.90;;;;;;4986193;28;20704;-22
2023/10/25 02:42:13;;;;;;;1.67;0.80;;;12.20;99.90;;;;;;4949072;28;20034;-21
2023/10/25 02:44:39;;;;;;;1.40;0.90;;;12.20;99.90;;;;;;4968684;28;20451;-22
2023/10/25 02:47:06;;;;;;;1.33;0.83;;;12.20;99.90;;;;;;4948475;28;20447;-22
2023/10/25 02:49:33;;;;;;;1.38;0.90;;;11.60;99.90;;;;;;4960289;28;20250;-21
2023/10/25 02:51:59;;;;;;;1.58;1.00;;;12.00;99.90;;;;;;4976063;28;20423;-22
2023/10/25 02:54:24;;;;;;;1.60;0.90;;;12.10;99.90;;;;;;4964974;28;20101;-21
2023/10/25 02:56:50;;;;;;;2.20;1.00;;;12.20;99.90;;;;;;4948586;28;20591;-22
2023/10/25 02:59:16;;;;;;;2.00;1.10;;;12.20;99.90;;;;;;4972416;28;20054;-22
2023/10/25 03:01:42;;;;;;;1.93;1.10;;;12.20;99.90;;;;;;4964047;28;20038;-21
2023/10/25 03:04:08;;;;;;;1.70;1.00;;;12.20;99.90;;;;;;4953387;28;20048;-22
2023/10/25 03:06:34;;;;;;;1.23;0.77;;;12.20;99.90;;;;;;4959080;28;20613;-22
2023/10/25 03:08:59;;;;;;;1.95;1.10;;;12.20;99.90;;;;;;4968149;28;20101;-22
2023/10/25 03:11:25;;;;;;;1.90;0.85;;;12.20;99.90;;;;;;4945333;28;20329;-23
2023/10/25 03:13:51;;;;;;;1.60;0.90;;;12.20;99.90;;;;;;4971674;28;20022;-22
2023/10/25 03:16:17;;;;;;;1.00;0.80;;;12.20;99.90;;;;;;4959388;28;20142;-21
2023/10/25 03:18:42;;;;;;;1.50;1.00;;;12.30;99.90;;;;;;4965974;28;20026;-21
2023/10/25 03:21:08;;;;;;;1.80;1.10;;;12.20;99.90;;;;;;4970467;28;20057;-22
2023/10/25 03:23:34;;;;;;;1.63;0.90;;;12.30;99.90;;;;;;4974900;28;20077;-21
2023/10/25 03:26:07;;;;;;;0.95;0.82;;;12.40;99.90;;;;;;4970409;28;20043;-22
2023/10/25 03:28:33;;;;;;;1.55;1.02;;;12.30;99.90;;;;;;4947699;28;20396;-22
2023/10/25 03:31:08;;;;;;;1.67;1.00;;;12.30;99.90;;;;;;4970167;28;20037;-22
2023/10/25 03:33:34;;;;;;;1.00;0.90;;;12.40;99.90;;;;;;4965152;28;20274;-22
2023/10/25 03:36:01;;;;;;;2.22;1.00;;;12.40;99.90;;;;;;4964643;28;20670;-22
2023/10/25 03:38:27;;;;;;;3.97;1.08;;;12.40;99.90;;;;;;4976838;28;20132;-22
2023/10/25 03:41:03;;;;;;;2.17;1.00;;;12.40;99.90;;;;;;4958128;28;20057;-23
2023/10/25 03:43:30;;;;;;;1.77;0.90;;;12.40;99.90;;;;;;4951417;28;20613;-22
2023/10/25 03:45:56;;;;;;;2.42;0.90;;;12.40;99.90;;;;;;4985941;28;20030;-22
2023/10/25 03:48:21;;;;;;;1.60;1.10;;;12.40;99.90;;;;;;4961571;28;20706;-22
2023/10/25 03:50:47;;;;;;;1.93;0.90;;;12.40;99.90;;;;;;4959060;28;20609;-22
2023/10/25 03:53:13;;;;;;;2.58;1.00;;;12.40;99.90;;;;;;4984560;28;20113;-22
2023/10/25 03:55:39;;;;;;;0.85;0.80;;;12.30;99.90;;;;;;4975246;28;20371;-22
2023/10/25 03:58:04;;;;;;;1.47;1.20;;;12.30;99.90;;;;;;4962017;28;20449;-22
2023/10/25 04:00:30;;;;;;;1.40;0.88;;;12.30;99.90;;;;;;4959290;28;20837;-22
2023/10/25 04:02:56;;;;;;;1.20;0.80;;;12.30;99.90;;;;;;4977425;28;20074;-22
2023/10/25 04:05:22;;;;;;;1.60;1.00;;;12.30;99.90;;;;;;4945659;28;20569;-22
2023/10/25 04:07:51;;;;;;;1.87;0.80;;;12.30;99.90;;;;;;4961802;28;20109;-22
2023/10/25 04:10:17;;;;;;;1.23;0.90;;;12.30;99.90;;;;;;4983932;28;20050;-22
2023/10/25 04:12:42;;;;;;;1.53;1.00;;;11.80;99.90;;;;;;4969395;28;20022;-22
2023/10/25 04:15:08;;;;;;;2.33;1.00;;;12.30;99.90;;;;;;4945644;28;20030;-22
2023/10/25 04:17:34;;;;;;;2.67;0.90;;;12.30;99.90;;;;;;4963181;28;22726;-21
2023/10/25 04:20:00;;;;;;;1.27;0.70;;;12.30;99.90;;;;;;4990885;28;20668;-22
2023/10/25 04:22:25;;;;;;;1.52;0.90;;;12.20;99.90;;;;;;4957914;28;20035;-22
2023/10/25 04:24:51;;;;;;;1.67;0.83;;;12.30;99.90;;;;;;4975724;28;20072;-21
2023/10/25 04:27:17;;;;;;;2.47;0.90;;;12.30;99.90;;;;;;4968444;28;20733;-21
2023/10/25 04:29:43;;;;;;;1.10;0.80;;;12.20;99.90;;;;;;4944304;28;20365;-22
2023/10/25 04:32:09;;;;;;;2.00;0.80;;;12.30;99.90;;;;;;4969728;28;20030;-22
2023/10/25 04:34:35;;;;;;;1.10;0.80;;;12.20;99.90;;;;;;4972159;28;20031;-22
2023/10/25 04:37:01;;;;;;;1.03;0.80;;;12.20;99.90;;;;;;4965096;28;20030;-23
2023/10/25 04:39:26;;;;;;;1.85;0.90;;;10.90;99.90;;;;;;4971068;28;20492;-22
2023/10/25 04:41:52;;;;;;;1.37;0.80;;;12.20;99.90;;;;;;4970923;28;20034;-23
2023/10/25 04:44:18;;;;;;;1.80;0.90;;;12.20;99.90;;;;;;4963975;28;20362;-23
2023/10/25 04:46:43;;;;;;;0.85;0.68;;;12.20;99.90;;;;;;4948946;28;20042;-22
2023/10/25 04:49:09;;;;;;;1.30;0.83;;;12.20;99.90;;;;;;4957041;28;20030;-22
2023/10/25 04:51:35;;;;;;;0.88;0.73;;;12.20;99.90;;;;;;4973340;28;20109;-22
2023/10/25 04:54:01;;;;;;;0.82;0.60;;;12.20;99.90;;;;;;4956871;28;20555;-23
2023/10/25 04:56:26;;;;;;;1.30;0.70;;;12.20;99.90;;;;;;4956876;28;20093;-23
2023/10/25 04:58:52;;;;;;;2.15;0.73;;;12.20;99.90;;;;;;4971011;28;20046;-23
2023/10/25 05:01:18;;;;;;;2.10;0.80;;;12.20;99.90;;;;;;4930389;28;20223;-22
2023/10/25 05:03:44;;;;;;;1.35;0.73;;;12.20;99.90;;;;;;4956968;28;20484;-22
2023/10/25 05:06:10;;;;;;;1.95;0.90;;;12.20;99.90;;;;;;4936592;28;20237;-22
2023/10/25 05:08:36;;;;;;;1.00;0.70;;;12.30;99.90;;;;;;4960392;28;20121;-22
2023/10/25 05:11:06;;;;;;;1.88;0.80;;;12.20;99.90;;;;;;4956209;28;20395;-22
2023/10/25 05:13:32;;;;;;;1.73;0.82;;;12.30;99.90;;;;;;4969733;28;20026;-22
2023/10/25 05:15:59;;;;;;;1.20;0.80;;;12.30;99.90;;;;;;4946972;28;20027;-22
2023/10/25 05:18:26;;;;;;;1.10;0.80;;;12.30;99.90;;;;;;4966098;28;20366;-22
2023/10/25 05:21:00;;;;;;;0.60;0.60;;;12.30;99.90;;;;;;4958498;28;20042;-22
2023/10/25 05:23:33;;;;;;;1.42;0.80;;;12.40;99.90;;;;;;4937190;28;20037;-22
2023/10/25 05:26:01;;;;;;;2.17;0.70;;;12.40;99.90;;;;;;4980971;28;20349;-22
2023/10/25 05:28:28;;;;;;;1.92;0.73;;;12.40;99.90;;;;;;4970135;28;20026;-22
2023/10/25 05:30:57;;;;;;;1.50;0.80;;;12.40;99.90;;;;;;4967203;28;20661;-22
2023/10/25 05:33:24;;;;;;;0.60;0.60;;;12.40;99.90;;;;;;4942673;28;20244;-22
2023/10/25 05:35:50;;;;;;;1.63;0.75;;;12.40;99.90;;;;;;4963523;28;20034;-22
2023/10/25 05:38:16;;;;;;;1.33;0.90;;;12.40;99.90;;;;;;4953248;28;20597;-22
2023/10/25 05:40:44;;;;;;;1.88;0.80;;;12.40;99.90;;;;;;4962427;28;20026;-22
2023/10/25 05:43:15;;;;;;;1.23;0.80;;;12.50;99.90;;;;;;4963951;28;21262;-21
2023/10/25 05:45:42;;;;;;;1.97;0.70;;;12.50;99.90;;;;;;4968535;28;20278;-20
2023/10/25 05:48:11;;;;;;;1.23;0.80;;;12.50;99.90;;;;;;4940710;28;20619;-16
2023/10/25 05:50:37;;;;;;;1.70;0.90;;;12.50;99.90;;;;;;4968726;28;20037;-16
2023/10/25 05:53:03;;;;;;;2.08;0.98;;;12.50;99.90;;;;;;4947696;28;20108;-17
2023/10/25 05:55:29;;;;;;;1.20;0.80;;;12.50;99.90;;;;;;4945276;28;20018;-16
2023/10/25 05:57:55;;;;;;;1.60;0.80;;;12.50;99.90;;;;;;4960221;28;20355;-15
2023/10/25 06:00:22;;;;;;;1.30;0.70;;;12.50;99.90;;;;;;4961995;28;20034;-15
2023/10/25 06:02:49;;;;;;;1.58;0.80;;;12.50;99.90;;;;;;4958801;28;20670;-15
2023/10/25 06:05:17;;;;;;;1.42;0.80;;;12.40;99.90;;;;;;4988208;28;20365;-16
2023/10/25 06:07:43;;;;;;;1.13;0.70;;;12.40;99.90;;;;;;4965482;28;20029;-17
2023/10/25 06:10:09;;;;;;;3.40;0.90;;;12.40;99.90;;;;;;4949826;28;20047;-16
2023/10/25 06:12:35;;;;;;;2.13;0.90;;;12.40;99.90;;;;;;4956315;28;20038;-16
2023/10/25 06:15:04;;;;;;;1.20;0.70;;;12.40;99.90;;;;;;4964907;28;20352;-15
2023/10/25 06:17:30;;;;;;;1.23;0.73;;;12.40;99.90;;;;;;4985222;28;20052;-16
2023/10/25 06:19:56;;;;;;;1.07;0.73;;;12.40;99.90;;;;;;4925340;28;20611;-15
2023/10/25 06:22:21;;;;;;;1.10;0.80;;;12.40;99.90;;;;;;4984081;28;20515;-15
2023/10/25 06:24:47;;;;;;;1.15;0.73;;;12.40;99.90;;;;;;4947041;28;20024;-16
2023/10/25 06:27:13;;;;;;;0.87;0.70;;;12.40;99.90;;;;;;4959441;28;20057;-16
2023/10/25 06:29:39;;;;;;;1.80;0.70;;;12.40;99.90;;;;;;4959699;28;20105;-16
2023/10/25 06:32:05;;;;;;;0.97;0.70;;;12.40;99.90;;;;;;4966823;28;20208;-16
2023/10/25 06:34:31;;;;;;;0.85;0.70;;;12.30;99.90;;;;;;4960228;28;20472;-16
2023/10/25 06:36:57;;;;;;;1.03;0.80;;;12.40;99.90;;;;;;4964992;28;20019;-16
2023/10/25 06:39:23;;;;;;;2.95;1.10;;;12.40;99.90;;;;;;4957919;28;20045;-15
2023/10/25 06:41:49;;;;;;;2.35;1.00;;;12.40;99.90;;;;;;4958816;28;20121;-16
2023/10/25 06:44:15;;;;;;;2.45;1.15;;;12.40;99.90;;;;;;4985560;28;20033;-15
2023/10/25 06:46:42;;;;;;;2.00;1.30;;;12.30;99.90;;;;;;4969021;28;20500;-16
2023/10/25 06:49:08;;;;;;;1.97;1.00;;;12.40;99.90;;;;;;4966674;28;20031;-15
2023/10/25 06:51:35;;;;;;;1.20;0.90;;;12.40;99.90;;;;;;4946075;28;20149;-15
2023/10/25 06:54:01;;;;;;;1.48;0.90;;;12.30;99.90;;;;;;4950491;28;20555;-16
2023/10/25 06:56:29;;;;;;;1.45;1.00;;;12.30;99.90;;;;;;4978613;28;20038;-15
2023/10/25 06:58:55;;;;;;;1.10;0.82;;;12.30;99.90;;;;;;4959019;28;20125;-16
2023/10/25 07:01:25;;;;;;;0.90;0.80;;;11.30;99.90;;;;;;4966930;28;20057;-16
2023/10/25 07:03:55;;;;;;;1.20;0.88;;;12.30;99.90;;;;;;4956585;28;20035;-16
2023/10/25 07:06:21;;;;;;;1.92;1.10;;;12.30;99.90;;;;;;4930312;28;20461;-16
2023/10/25 07:08:48;;;;;;;1.38;0.90;;;12.30;99.90;;;;;;4974009;28;20118;-16
2023/10/25 07:11:14;;;;;;;1.42;1.00;;;12.30;99.90;;;;;;4960796;28;20034;-16
2023/10/25 07:13:40;;;;;;;2.00;0.90;;;12.20;99.90;;;;;;4963972;28;20080;-16
2023/10/25 07:16:07;;;;;;;1.42;0.90;;;12.30;99.90;;;;;;4967578;28;20027;-16
2023/10/25 07:18:33;;;;;;;1.05;0.85;;;12.30;99.90;;;;;;4968099;28;20509;-16
2023/10/25 07:20:58;;;;;;;1.17;0.80;;;12.30;99.90;;;;;;4971535;28;20531;-16
2023/10/25 07:23:24;;;;;;;3.05;0.90;;;12.30;99.90;;;;;;4943779;28;20484;-16
2023/10/25 07:25:52;;;;;;;2.05;0.90;;;12.30;99.90;;;;;;4961134;28;20019;-16
2023/10/25 07:28:17;;;;;;;1.53;0.83;;;12.30;99.90;;;;;;4963306;28;20023;-17
2023/10/25 07:30:43;;;;;;;1.23;0.90;;;12.20;99.90;;;;;;4965614;28;20052;-16
2023/10/25 07:33:10;;;;;;;1.33;1.00;;;13.40;99.90;;;;;;4970196;28;20059;-17
2023/10/25 07:35:36;;;;;;;0.98;0.80;;;12.20;99.90;;;;;;4975202;28;20022;-16
2023/10/25 07:38:01;;;;;;;1.77;0.88;;;12.20;99.90;;;;;;4963073;28;20049;-17
2023/10/25 07:40:27;;;;;;;2.20;1.00;;;12.20;99.90;;;;;;4944901;28;20960;-17
2023/10/25 07:42:53;;;;;;;1.95;0.90;;;12.20;99.90;;;;;;4973584;28;20022;-16
2023/10/25 07:45:18;;;;;;;2.33;0.90;;;12.30;99.90;;;;;;4948530;28;20035;-17
2023/10/25 07:47:44;;;;;;;1.25;0.88;;;12.20;99.90;;;;;;4967631;28;20026;-16
2023/10/25 07:50:10;;;;;;;1.40;0.90;;;12.30;99.90;;;;;;4975341;28;20034;-17
2023/10/25 07:52:36;;;;;;;2.42;0.90;;;12.30;99.90;;;;;;4972775;28;20529;-17
2023/10/25 07:55:05;;;;;;;1.13;0.87;;;12.30;99.90;;;;;;4948392;28;20161;-18
2023/10/25 07:57:33;;;;;;;2.10;1.00;;;12.30;99.90;;;;;;4944961;28;20092;-17
2023/10/25 08:00:00;;;;;;;1.60;1.05;;;12.30;99.90;;;;;;4963134;28;20613;-18
2023/10/25 08:02:26;;;;;;;1.23;0.90;;;12.30;99.90;;;;;;4947325;28;20183;-19
2023/10/25 08:04:52;;;;;;;3.08;0.90;;;12.30;99.90;;;;;;4985992;28;20026;-19
2023/10/25 08:07:18;;;;;;;2.95;1.00;;;12.30;99.90;;;;;;4979967;28;20482;-20
2023/10/25 08:09:46;;;;;;;1.60;1.07;;;12.30;99.90;;;;;;4964145;28;20050;-21
2023/10/25 08:12:12;;;;;;;3.42;1.02;;;12.30;99.90;;;;;;4960263;28;20101;-22
2023/10/25 08:14:37;;;;;;;2.20;0.90;;;12.30;99.90;;;;;;4957554;28;20132;-21
2023/10/25 08:17:03;;;;;;;1.40;0.90;;;12.30;99.90;;;;;;4962857;28;20488;-21
2023/10/25 08:19:31;;;;;;;1.80;1.00;;;12.30;99.90;;;;;;4967334;28;20043;-20
2023/10/25 08:21:56;;;;;;;2.40;0.90;;;12.30;99.90;;;;;;4975597;28;20368;-20
2023/10/25 08:24:23;;;;;;;1.35;0.90;;;12.40;99.90;;;;;;4938831;28;20039;-20
2023/10/25 08:26:51;;;;;;;3.65;1.10;;;12.40;99.90;;;;;;4961616;28;20101;-20
2023/10/25 08:29:17;;;;;;;2.50;1.00;;;12.40;99.90;;;;;;4986066;28;20377;-20
2023/10/25 08:31:46;;;;;;;1.60;0.90;;;12.40;99.90;;;;;;4941854;28;20030;-20
2023/10/25 08:34:12;;;;;;;3.47;1.10;;;12.40;99.90;;;;;;4969819;28;20021;-20
2023/10/25 08:36:38;;;;;;;3.60;1.40;;;12.40;99.90;;;;;;4966898;28;20499;-21
2023/10/25 08:39:04;;;;;;;3.35;1.17;;;12.40;99.90;;;;;;4945232;28;20567;-21
2023/10/25 08:41:30;;;;;;;2.50;1.30;;;12.40;99.90;;;;;;4962230;28;20034;-22
2023/10/25 08:43:58;;;;;;;2.15;1.30;;;13.00;99.90;;;;;;4959633;28;20030;-21
2023/10/25 08:46:24;;;;;;;1.88;1.00;;;12.40;99.90;;;;;;4964878;28;20026;-21
2023/10/25 08:48:53;;;;;;;1.80;1.10;;;12.40;99.90;;;;;;4952796;28;20104;-21
2023/10/25 08:51:19;;;;;;;1.30;0.90;;;12.50;99.90;;;;;;4987939;28;20042;-21
2023/10/25 08:53:46;;;;;;;2.47;0.90;;;12.50;99.90;;;;;;4972189;28;20790;-21
2023/10/25 08:56:12;;;;;;;2.00;1.00;;;12.50;99.90;;;;;;4946420;28;20500;-21
2023/10/25 08:58:38;;;;;;;2.40;1.00;;;12.50;99.90;;;;;;4942926;28;20129;-21
2023/10/25 09:01:04;;;;;;;0.95;0.80;;;12.50;99.90;;;;;;4957595;28;20331;-21
2023/10/25 09:03:32;;;;;;;1.40;0.90;;;12.50;99.90;;;;;;4957896;28;20045;-22
2023/10/25 09:06:03;;;;;;;2.00;1.10;;;12.50;99.90;;;;;;4920767;28;20171;-22
2023/10/25 09:08:29;;;;;;;1.80;1.23;;;12.50;99.90;;;;;;4964545;28;20109;-22
2023/10/25 09:11:02;;;;;;;1.73;0.95;;;12.50;99.90;;;;;;4943369;28;20322;-22
2023/10/25 09:13:42;;;;;;;1.40;0.80;;;12.50;99.90;;;;;;4954707;28;20038;-22
2023/10/25 09:16:11;;;;;;;1.80;1.03;;;12.50;99.90;;;;;;4959850;28;20034;-22
2023/10/25 09:18:38;;;;;;;1.17;1.00;;;12.50;99.90;;;;;;4945803;28;20108;-22
2023/10/25 09:21:06;;;;;;;1.48;1.10;;;12.50;99.90;;;;;;4953059;28;20092;-22
2023/10/25 09:23:35;;;;;;;2.08;1.15;;;12.50;99.90;;;;;;4982711;28;20026;-22
2023/10/25 09:26:16;;;;;;;2.70;1.13;;;12.60;99.90;;;;;;4943893;28;25364;-21
2023/10/25 09:28:45;;;;;;;1.60;1.23;;;12.60;99.90;;;;;;4951455;28;20039;-21
2023/10/25 09:31:22;;;;;;;1.88;1.00;;;12.10;99.90;;;;;;4957800;28;20149;-21
2023/10/25 09:33:48;;;;;;;1.73;1.23;;;12.60;99.90;;;;;;4955297;28;20042;-20
2023/10/25 09:36:14;;;;;;;1.67;1.23;;;12.60;99.90;;;;;;4965224;28;20026;-20
2023/10/25 09:38:40;;;;;;;2.10;1.30;;;12.60;99.90;;;;;;4974821;28;20034;-20
2023/10/25 09:41:11;;;;;;;1.67;1.17;;;12.60;99.90;;;;;;4970094;28;20109;-19
2023/10/25 09:43:41;;;;;;;1.50;1.00;;;12.60;99.90;;;;;;4938459;28;20027;-19
2023/10/25 09:46:09;;;;;;;1.85;1.17;;;12.60;99.90;;;;;;4966739;28;20037;-19
2023/10/25 09:48:36;;;;;;;1.70;1.10;;;12.60;99.90;;;;;;4956113;28;20031;-19
2023/10/25 09:51:22;;;;;;;1.60;1.20;;;12.70;99.90;;;;;;4964504;28;22148;-19
2023/10/25 09:54:05;;;;;;;3.85;1.52;;;12.70;99.90;;;;;;4937893;28;20082;-19
2023/10/25 09:56:33;;;;;;;2.28;1.33;;;12.70;99.90;;;;;;4972660;28;20117;-20
2023/10/25 09:59:00;;;;;;;2.85;1.50;;;12.70;99.90;;;;;;4954083;28;20230;-19
2023/10/25 10:01:26;;;;;;;2.83;1.50;;;12.70;99.90;;;;;;4955513;28;20026;-19
2023/10/25 10:04:05;;;;;;;2.55;1.23;;;12.80;99.90;;;;;;4960042;28;20562;-19
2023/10/25 10:06:49;;;;;;;1.95;1.30;;;12.80;99.90;;;;;;4956387;28;20061;-19
2023/10/25 10:09:38;;;;;;;2.15;1.35;;;12.80;99.90;;;;;;4967593;28;20018;-20
2023/10/25 10:12:06;;;;;;;2.53;1.48;;;12.80;99.90;;;;;;4930148;28;20568;-20
2023/10/25 10:14:35;;;;;;;2.47;1.40;;;12.80;99.90;;;;;;4968737;28;20589;-20
2023/10/25 10:17:04;;;;;;;2.70;1.30;;;12.90;99.90;;;;;;4952537;28;20503;-20
2023/10/25 10:19:36;;;;;;;1.70;1.20;;;12.80;99.90;;;;;;4976837;28;20049;-19
2023/10/25 10:22:08;;;;;;;2.30;1.40;;;12.90;99.90;;;;;;4953469;28;20586;-20
2023/10/25 10:24:39;;;;;;;1.90;1.20;;;12.90;99.90;;;;;;4960070;28;20027;-20
2023/10/25 10:27:05;;;;;;;2.90;1.50;;;12.90;99.90;;;;;;4942051;28;21380;-20
2023/10/25 10:29:31;;;;;;;3.08;1.65;;;13.00;99.90;;;;;;4976035;28;20611;-19
2023/10/25 10:32:01;;;;;;;2.03;1.37;;;13.00;99.90;;;;;;4973368;28;20034;-20
2023/10/25 10:34:37;;;;;;;2.05;1.40;;;13.00;99.90;;;;;;4959809;28;20176;-20
2023/10/25 10:37:14;;;;;;;1.83;1.23;;;13.10;99.90;;;;;;4962569;28;20035;-20
2023/10/25 10:39:56;;;;;;;2.03;1.40;;;13.00;99.90;;;;;;4956832;28;20117;-20
2023/10/25 10:42:34;;;;;;;2.05;1.48;;;13.10;99.90;;;;;;4971669;28;20034;-20
2023/10/25 10:45:02;;;;;;;2.13;1.67;;;13.10;99.90;;;;;;4929966;28;20487;-19
2023/10/25 10:47:41;;;;;;;2.47;1.33;;;13.10;99.90;;;;;;4957758;28;20510;-19
2023/10/25 10:50:14;;;;;;;1.98;1.20;;;13.20;99.90;;;;;;4954309;28;20276;-20
2023/10/25 10:52:42;;;;;;;2.42;1.30;;;13.20;99.90;;;;;;4965942;28;20084;-19
2023/10/25 10:55:12;;;;;;;1.80;1.20;;;13.20;99.90;;;;;;4948256;28;20335;-20
2023/10/25 10:57:38;;;;;;;2.03;1.40;;;13.20;99.90;;;;;;4971073;28;20194;-20
2023/10/25 11:00:08;;;;;;;1.85;1.30;;;13.30;99.90;;;;;;4940119;28;20038;-20
2023/10/25 11:02:35;;;;;;;2.55;1.50;;;13.20;99.90;;;;;;4972609;28;20027;-20
2023/10/25 11:05:01;;;;;;;2.05;1.30;;;13.30;99.90;;;;;;4947984;28;20053;-20
2023/10/25 11:07:26;;;;;;;2.10;1.40;;;13.30;99.90;;;;;;4977577;28;20022;-20
2023/10/25 11:09:52;;;;;;;2.80;1.58;;;13.30;99.90;;;;;;4929613;28;20045;-20
2023/10/25 11:12:18;;;;;;;1.88;1.40;;;13.30;99.90;;;;;;4990366;28;20034;-20
2023/10/25 11:14:45;;;;;;;1.90;1.20;;;13.30;99.90;;;;;;4936699;28;20050;-20
2023/10/25 11:17:12;;;;;;;2.05;1.30;;;13.40;99.90;;;;;;4957854;28;20030;-20
2023/10/25 11:19:38;;;;;;;2.22;1.30;;;13.40;99.90;;;;;;4949002;28;20132;-19
2023/10/25 11:22:04;;;;;;;1.63;1.27;;;13.40;99.90;;;;;;4961482;28;20467;-20
2023/10/25 11:24:30;;;;;;;2.20;1.27;;;13.40;99.90;;;;;;4944712;28;20037;-20
2023/10/25 11:26:56;;;;;;;1.60;1.20;;;13.40;99.90;;;;;;4973310;28;20045;-20
2023/10/25 11:29:22;;;;;;;2.30;1.40;;;13.50;99.90;;;;;;4935961;28;20031;-20
2023/10/25 11:31:50;;;;;;;2.40;1.40;;;13.50;99.90;;;;;;4963067;28;20446;-20
2023/10/25 11:34:22;;;;;;;1.90;1.30;;;13.50;99.90;;;;;;4957047;28;20260;-20
2023/10/25 11:36:49;;;;;;;2.25;1.45;;;13.50;99.90;;;;;;4954384;28;20046;-20
2023/10/25 11:39:15;;;;;;;2.53;1.40;;;13.50;99.90;;;;;;4938808;28;20054;-20
2023/10/25 11:41:42;;;;;;;2.63;1.50;;;13.50;99.90;;;;;;4984222;28;20027;-20
2023/10/25 11:44:08;;;;;;;2.00;1.27;;;13.60;99.90;;;;;;4958330;28;20047;-20
2023/10/25 11:46:38;;;;;;;2.33;1.42;;;13.60;99.90;;;;;;4947690;28;20896;-19
2023/10/25 11:49:05;;;;;;;2.50;1.40;;;13.60;99.90;;;;;;4974766;28;20037;-20
2023/10/25 11:51:36;;;;;;;3.40;1.30;;;13.70;99.90;;;;;;4944336;28;20436;-20
2023/10/25 11:54:02;;;;;;;1.77;1.23;;;13.70;99.90;;;;;;4967148;28;20019;-20
2023/10/25 11:56:29;;;;;;;1.90;1.30;;;13.70;99.90;;;;;;4971017;28;20026;-20
2023/10/25 11:58:54;;;;;;;2.13;1.40;;;13.70;99.90;;;;;;4962563;28;20425;-20
2023/10/25 12:01:20;;;;;;;2.13;1.35;;;13.80;99.90;;;;;;4931254;28;20034;-20
2023/10/25 12:03:46;;;;;;;1.73;1.20;;;13.80;99.90;;;;;;4963232;28;20324;-20
2023/10/25 12:06:12;;;;;;;2.15;1.35;;;13.80;99.90;;;;;;4956107;28;20041;-20
2023/10/25 12:08:42;;;;;;;1.67;1.20;;;13.80;99.90;;;;;;4948871;28;20039;-19
2023/10/25 12:11:11;;;;;;;1.50;1.20;;;13.90;99.90;;;;;;4970633;28;20022;-19
2023/10/25 12:13:41;;;;;;;1.70;1.10;;;13.90;99.90;;;;;;4959449;28;20022;-19
2023/10/25 12:16:08;;;;;;;1.77;1.20;;;13.90;99.90;;;;;;4938998;28;20084;-19
2023/10/25 12:18:36;;;;;;;1.83;1.15;;;13.90;99.90;;;;;;4964429;28;20031;-20
2023/10/25 12:21:06;;;;;;;1.67;1.23;;;14.00;99.90;;;;;;4963396;28;20023;-20
2023/10/25 12:23:32;;;;;;;1.92;1.30;;;14.00;99.90;;;;;;4961814;28;20042;-20
2023/10/25 12:25:59;;;;;;;1.90;1.20;;;14.00;99.90;;;;;;4988775;28;20026;-20
2023/10/25 12:28:26;;;;;;;1.77;1.40;;;14.00;99.90;;;;;;4967141;28;20023;-20
2023/10/25 12:30:52;;;;;;;2.90;1.20;;;14.00;99.90;;;;;;4949198;28;20591;-20
2023/10/25 12:33:18;;;;;;;1.38;1.10;;;14.00;99.90;;;;;;4961956;28;20488;-20
2023/10/25 12:35:44;;;;;;;3.07;1.50;;;14.10;99.90;;;;;;4954624;28;20244;-20
2023/10/25 12:38:10;;;;;;;1.75;1.10;;;14.10;99.90;;;;;;4976684;28;20540;-21
2023/10/25 12:40:36;;;;;;;1.65;1.30;;;14.20;99.90;;;;;;4966486;28;20669;-21
2023/10/25 12:43:02;;;;;;;1.67;1.20;;;14.20;99.90;;;;;;4975332;28;20050;-21
2023/10/25 12:45:31;;;;;;;2.17;1.40;;;14.20;99.90;;;;;;4954898;28;20463;-21
2023/10/25 12:47:57;;;;;;;1.63;1.30;;;14.30;99.90;;;;;;4945955;28;20707;-20